createdAt,value
2023-02-04T00:00:50.209Z,5.13
2023-02-04T00:03:20.306Z,5.21
2023-02-04T00:05:50.212Z,5.16
2023-02-04T00:08:22.688Z,5.26
2023-02-04T00:10:52.235Z,5.07
2023-02-04T00:13:21.742Z,5.08
2023-02-04T00:15:51.377Z,5.03
2023-02-04T00:18:22.095Z,5.15
2023-02-04T00:20:51.737Z,5.06
2023-02-04T00:23:23.980Z,5.04
2023-02-04T00:25:53.594Z,5.02
2023-02-04T00:28:23.124Z,4.93
2023-02-04T00:30:52.737Z,4.57
2023-02-04T00:33:22.308Z,3.82
2023-02-04T00:35:52.173Z,3.60
2023-02-04T00:38:26.473Z,3.51
2023-02-04T00:40:55.984Z,3.41
2023-02-04T00:43:25.580Z,3.38
2023-02-04T00:45:55.487Z,3.45
2023-02-04T00:48:26.775Z,3.48
2023-02-04T00:50:56.774Z,3.37
2023-02-04T00:53:28.895Z,3.48
2023-02-04T00:56:00.310Z,3.56
2023-02-04T00:58:29.844Z,3.54
2023-02-04T01:00:59.425Z,3.58
2023-02-04T01:03:28.981Z,3.61
2023-02-04T01:05:58.748Z,3.55
2023-02-04T01:08:30.854Z,3.61
2023-02-04T01:11:00.439Z,3.52
2023-02-04T01:13:29.961Z,3.72
2023-02-04T01:15:59.540Z,3.57
2023-02-04T01:18:29.100Z,3.63
2023-02-04T01:21:00.114Z,3.51
2023-02-04T01:23:32.338Z,3.61
2023-02-04T01:26:01.914Z,3.72
2023-02-04T01:28:31.521Z,3.71
2023-02-04T01:31:01.656Z,3.81
2023-02-04T01:33:31.379Z,3.64
2023-02-04T01:36:00.910Z,3.58
2023-02-04T01:38:34.775Z,3.77
2023-02-04T01:41:04.795Z,3.49
2023-02-04T01:43:35.993Z,3.55
2023-02-04T01:46:05.811Z,3.65
2023-02-04T01:48:35.896Z,3.80
2023-02-04T01:51:08.724Z,3.81
2023-02-04T01:53:41.656Z,3.44
2023-02-04T01:56:19.037Z,3.65
2023-02-04T01:58:48.994Z,3.79
2023-02-04T02:01:35.785Z,4.00
2023-02-04T02:04:05.911Z,3.77
2023-02-04T02:06:36.498Z,3.89
2023-02-04T02:09:08.934Z,3.73
2023-02-04T02:11:38.613Z,3.40
2023-02-04T02:14:08.353Z,3.37
2023-02-04T02:16:38.076Z,3.11
2023-02-04T02:19:10.184Z,3.50
2023-02-04T02:21:47.103Z,3.25
2023-02-04T02:24:32.771Z,3.34
2023-02-04T02:27:07.230Z,3.46
2023-02-04T02:29:37.086Z,3.40
2023-02-04T02:32:07.547Z,3.53
2023-02-04T02:34:39.395Z,3.59
2023-02-04T02:37:10.673Z,3.42
2023-02-04T02:39:47.218Z,3.57
2023-02-04T02:42:19.195Z,3.47
2023-02-04T02:44:49.761Z,3.33
2023-02-04T02:47:22.633Z,3.41
2023-02-04T02:49:53.865Z,3.32
2023-02-04T02:52:23.870Z,3.16
2023-02-04T02:54:56.415Z,3.03
2023-02-04T02:57:26.272Z,3.30
2023-02-04T02:59:55.864Z,3.30
2023-02-04T03:02:26.718Z,3.41
2023-02-04T03:05:00.936Z,3.28
2023-02-04T03:07:32.995Z,3.36
2023-02-04T03:10:05.521Z,3.13
2023-02-04T03:12:35.264Z,3.24
2023-02-04T03:15:05.721Z,3.12
2023-02-04T03:17:35.882Z,2.99
2023-02-04T03:20:06.805Z,2.98
2023-02-04T03:22:36.450Z,2.98
2023-02-04T03:25:09.775Z,3.11
2023-02-04T03:27:39.412Z,2.86
2023-02-04T03:30:10.784Z,2.92
2023-02-04T03:32:41.785Z,3.04
2023-02-04T03:35:11.571Z,2.95
2023-02-04T03:37:41.292Z,2.81
2023-02-04T03:40:15.069Z,2.86
2023-02-04T03:42:44.595Z,2.78
2023-02-04T03:45:14.316Z,2.81
2023-02-04T03:47:43.831Z,2.67
2023-02-04T03:50:14.510Z,2.52
2023-02-04T03:52:45.169Z,2.65
2023-02-04T03:55:17.342Z,2.58
2023-02-04T03:57:46.862Z,2.67
2023-02-04T04:00:17.358Z,2.79
2023-02-04T04:02:46.964Z,3.01
2023-02-04T04:05:16.555Z,3.12
2023-02-04T04:07:46.113Z,2.97
2023-02-04T04:10:18.906Z,2.94
2023-02-04T04:12:48.681Z,2.76
2023-02-04T04:15:18.495Z,2.96
2023-02-04T04:17:48.025Z,2.97
2023-02-04T04:20:17.623Z,2.39
2023-02-04T04:22:47.411Z,2.64
2023-02-04T04:25:19.680Z,2.54
2023-02-04T04:27:49.316Z,2.43
2023-02-04T04:30:19.844Z,2.54
2023-02-04T04:32:49.412Z,2.87
2023-02-04T04:35:19.103Z,2.58
2023-02-04T04:37:48.623Z,2.80
2023-02-04T04:40:21.282Z,3.26
2023-02-04T04:42:50.862Z,2.33
2023-02-04T04:45:20.585Z,2.28
2023-02-04T04:47:50.498Z,1.81
2023-02-04T04:50:20.138Z,1.98
2023-02-04T04:52:49.775Z,2.09
2023-02-04T04:55:21.946Z,2.14
2023-02-04T04:57:51.643Z,2.75
2023-02-04T05:00:23.900Z,2.31
2023-02-04T05:02:53.482Z,2.52
2023-02-04T05:05:23.016Z,2.47
2023-02-04T05:07:53.630Z,2.44
2023-02-04T05:10:25.934Z,2.42
2023-02-04T05:12:55.456Z,2.52
2023-02-04T05:15:25.045Z,2.56
2023-02-04T05:17:54.577Z,2.82
2023-02-04T05:20:24.206Z,2.87
2023-02-04T05:22:56.039Z,2.96
2023-02-04T05:25:28.246Z,2.98
2023-02-04T05:27:57.815Z,2.92
2023-02-04T05:30:27.434Z,2.75
2023-02-04T05:32:57.293Z,2.99
2023-02-04T05:35:27.413Z,2.96
2023-02-04T05:37:56.939Z,3.15
2023-02-04T05:40:29.159Z,3.20
2023-02-04T05:42:58.866Z,3.39
2023-02-04T05:45:28.516Z,3.35
2023-02-04T05:47:58.041Z,3.16
2023-02-04T05:50:27.556Z,3.13
2023-02-04T05:53:11.151Z,3.24
2023-02-04T05:55:43.257Z,2.84
2023-02-04T05:58:12.831Z,3.24
2023-02-04T06:00:42.372Z,2.46
2023-02-04T06:03:13.328Z,2.50
2023-02-04T06:05:44.352Z,3.40
2023-02-04T06:08:15.879Z,3.81
2023-02-04T06:10:48.074Z,3.06
2023-02-04T06:13:20.783Z,2.18
2023-02-04T06:15:50.638Z,2.19
2023-02-04T06:18:20.220Z,1.96
2023-02-04T06:20:49.857Z,1.99
2023-02-04T06:23:19.393Z,2.34
2023-02-04T06:25:51.511Z,2.63
2023-02-04T06:28:21.081Z,3.15
2023-02-04T06:30:50.810Z,3.14
2023-02-04T06:33:21.459Z,3.23
2023-02-04T06:35:51.091Z,2.89
2023-02-04T06:38:20.683Z,3.15
2023-02-04T06:40:53.881Z,2.59
2023-02-04T06:43:25.525Z,2.57
2023-02-04T06:45:55.413Z,2.85
2023-02-04T06:48:25.077Z,3.16
2023-02-04T06:50:54.615Z,2.74
2023-02-04T06:53:24.138Z,2.70
2023-02-04T06:55:56.267Z,2.76
2023-02-04T06:58:25.930Z,2.23
2023-02-04T07:00:55.468Z,2.28
2023-02-04T07:03:25.001Z,2.17
2023-02-04T07:05:54.583Z,2.71
2023-02-04T07:08:24.297Z,2.75
2023-02-04T07:10:56.417Z,2.61
2023-02-04T07:13:26.041Z,2.79
2023-02-04T07:15:55.651Z,2.47
2023-02-04T07:18:25.293Z,2.50
2023-02-04T07:20:54.837Z,1.90
2023-02-04T07:23:25.372Z,1.81
2023-02-04T07:25:59.446Z,1.66
2023-02-04T07:28:29.549Z,1.82
2023-02-04T07:30:59.419Z,2.29
2023-02-04T07:33:29.169Z,2.22
2023-02-04T07:35:58.810Z,1.98
2023-02-04T07:38:28.394Z,1.96
2023-02-04T07:41:00.724Z,1.78
2023-02-04T07:43:30.452Z,2.09
2023-02-04T07:45:59.994Z,2.24
2023-02-04T07:48:29.705Z,2.61
2023-02-04T07:50:59.305Z,2.62
2023-02-04T07:53:28.854Z,3.13
2023-02-04T07:56:01.045Z,2.57
2023-02-04T07:58:30.924Z,2.90
2023-02-04T08:01:01.333Z,3.30
2023-02-04T08:03:32.862Z,3.24
2023-02-04T08:06:02.490Z,3.85
2023-02-04T08:08:32.028Z,3.97
2023-02-04T08:11:04.166Z,3.63
2023-02-04T08:13:33.786Z,3.56
2023-02-04T08:16:03.470Z,4.04
2023-02-04T08:18:33.207Z,3.73
2023-02-04T08:21:04.840Z,3.99
2023-02-04T08:23:34.434Z,4.26
2023-02-04T08:26:06.844Z,4.22
2023-02-04T08:28:36.380Z,4.30
2023-02-04T08:31:07.085Z,4.42
2023-02-04T08:33:36.752Z,4.16
2023-02-04T08:36:06.961Z,4.27
2023-02-04T08:38:36.776Z,4.57
2023-02-04T08:41:08.979Z,4.35
2023-02-04T08:43:38.754Z,4.55
2023-02-04T08:46:08.677Z,4.68
2023-02-04T08:48:38.430Z,4.75
2023-02-04T08:51:08.466Z,4.67
2023-02-04T08:53:40.321Z,4.53
2023-02-04T08:56:16.633Z,4.71
2023-02-04T08:58:46.757Z,4.08
2023-02-04T09:01:16.730Z,4.63
2023-02-04T09:03:46.345Z,4.53
2023-02-04T09:06:16.120Z,3.19
2023-02-04T09:08:45.976Z,3.11
2023-02-04T09:11:18.099Z,3.16
2023-02-04T09:13:47.690Z,3.69
2023-02-04T09:16:18.055Z,3.13
2023-02-04T09:18:47.602Z,3.52
2023-02-04T09:21:17.500Z,2.75
2023-02-04T09:23:48.580Z,3.03
2023-02-04T09:26:20.702Z,2.86
2023-02-04T09:28:50.226Z,3.19
2023-02-04T09:31:19.838Z,3.05
2023-02-04T09:33:49.534Z,2.90
2023-02-04T09:36:19.071Z,3.86
2023-02-04T09:38:48.632Z,3.64
2023-02-04T09:41:20.976Z,3.62
2023-02-04T09:43:50.642Z,3.91
2023-02-04T09:46:24.090Z,3.97
2023-02-04T09:48:54.280Z,3.55
2023-02-04T09:51:26.390Z,4.10
2023-02-04T09:53:58.587Z,4.20
2023-02-04T09:56:31.256Z,3.35
2023-02-04T09:59:00.772Z,3.79
2023-02-04T10:01:31.095Z,3.27
2023-02-04T10:04:04.658Z,4.45
2023-02-04T10:06:34.755Z,5.40
2023-02-04T10:09:04.396Z,4.55
2023-02-04T10:11:40.391Z,5.21
2023-02-04T10:14:16.086Z,3.85
2023-02-04T10:16:46.077Z,4.38
2023-02-04T10:19:17.647Z,4.75
2023-02-04T10:21:48.759Z,3.85
2023-02-04T10:24:21.458Z,4.32
2023-02-04T10:26:54.019Z,4.38
2023-02-04T10:29:25.930Z,4.08
2023-02-04T10:31:56.211Z,4.34
2023-02-04T10:34:27.702Z,4.69
2023-02-04T10:36:59.165Z,4.15
2023-02-04T10:39:33.252Z,3.90
2023-02-04T10:42:05.377Z,4.15
2023-02-04T10:44:39.807Z,4.65
2023-02-04T10:47:19.170Z,4.20
2023-02-04T10:49:57.021Z,3.97
2023-02-04T10:52:33.273Z,5.02
2023-02-04T10:55:04.284Z,4.29
2023-02-04T10:57:40.823Z,4.43
2023-02-04T11:00:19.513Z,4.05
2023-02-04T11:02:53.624Z,5.27
2023-02-04T11:05:25.058Z,4.73
2023-02-04T11:07:54.589Z,4.47
2023-02-04T11:10:26.028Z,4.93
2023-02-04T11:13:09.612Z,3.88
2023-02-04T11:15:42.448Z,3.79
2023-02-04T11:18:14.630Z,4.32
2023-02-04T11:20:44.203Z,3.92
2023-02-04T11:23:33.170Z,3.73
2023-02-04T11:26:08.644Z,3.57
2023-02-04T11:28:52.856Z,3.48
2023-02-04T11:31:44.021Z,4.37
2023-02-04T11:34:30.976Z,4.60
2023-02-04T11:37:15.462Z,4.90
2023-02-04T11:39:46.914Z,4.90
2023-02-04T11:42:25.584Z,4.81
2023-02-04T11:45:01.860Z,4.65
2023-02-04T11:47:38.488Z,5.06
2023-02-04T11:50:17.549Z,5.08
2023-02-04T11:52:47.121Z,5.21
2023-02-04T11:55:16.964Z,5.04
2023-02-04T11:57:47.503Z,4.89
2023-02-04T12:00:22.551Z,5.35
2023-02-04T12:02:54.240Z,5.02
2023-02-04T12:05:24.200Z,5.15
2023-02-04T12:07:53.725Z,5.08
2023-02-04T12:10:27.934Z,4.89
2023-02-04T12:13:00.094Z,4.95
2023-02-04T12:15:38.151Z,5.37
2023-02-04T12:18:10.082Z,4.97
2023-02-04T12:20:39.869Z,4.90
2023-02-04T12:23:09.397Z,4.98
2023-02-04T12:25:39.007Z,5.47
2023-02-04T12:28:08.555Z,5.07
2023-02-04T12:30:40.724Z,4.87
2023-02-04T12:33:10.348Z,4.75
2023-02-04T12:35:40.159Z,5.01
2023-02-04T12:38:10.435Z,5.08
2023-02-04T12:40:40.485Z,4.91
2023-02-04T12:43:10.068Z,4.66
2023-02-04T12:45:45.811Z,4.74
2023-02-04T12:48:15.672Z,5.29
2023-02-04T12:50:45.231Z,5.10
2023-02-04T12:53:14.877Z,5.91
2023-02-04T12:55:44.680Z,5.01
2023-02-04T12:58:14.260Z,5.32
2023-02-04T13:00:46.495Z,5.02
2023-02-04T13:03:16.066Z,4.60
2023-02-04T13:05:45.864Z,5.47
2023-02-04T13:08:15.474Z,4.99
2023-02-04T13:10:45.574Z,5.07
2023-02-04T13:13:15.121Z,5.52
2023-02-04T13:15:47.285Z,5.63
2023-02-04T13:18:18.395Z,5.51
2023-02-04T13:20:48.687Z,4.81
2023-02-04T13:23:18.229Z,4.90
2023-02-04T13:25:47.870Z,5.62
2023-02-04T13:28:17.521Z,5.36
2023-02-04T13:30:49.635Z,5.95
2023-02-04T13:33:19.401Z,5.92
2023-02-04T13:35:48.919Z,6.12
2023-02-04T13:38:18.422Z,5.85
2023-02-04T13:40:48.024Z,5.35
2023-02-04T13:43:17.924Z,5.63
2023-02-04T13:45:50.194Z,6.05
2023-02-04T13:48:19.863Z,5.77
2023-02-04T13:50:50.774Z,5.67
2023-02-04T13:53:20.462Z,5.35
2023-02-04T13:55:50.034Z,4.89
2023-02-04T13:58:19.896Z,4.14
2023-02-04T14:00:57.270Z,5.37
2023-02-04T14:03:27.382Z,5.71
2023-02-04T14:05:57.302Z,5.70
2023-02-04T14:08:26.844Z,6.01
2023-02-04T14:10:56.639Z,5.98
2023-02-04T14:13:26.392Z,5.32
2023-02-04T14:15:58.516Z,5.88
2023-02-04T14:18:28.154Z,5.68
2023-02-04T14:20:57.696Z,6.25
2023-02-04T14:23:27.395Z,5.98
2023-02-04T14:25:56.909Z,5.24
2023-02-04T14:28:26.440Z,5.84
2023-02-04T14:30:58.545Z,5.73
2023-02-04T14:33:28.149Z,5.59
2023-02-04T14:35:57.665Z,5.21
2023-02-04T14:38:30.908Z,5.43
2023-02-04T14:41:01.188Z,5.88
2023-02-04T14:43:37.045Z,5.84
2023-02-04T14:46:09.478Z,5.57
2023-02-04T14:48:39.039Z,5.71
2023-02-04T14:51:08.927Z,5.81
2023-02-04T14:53:38.664Z,5.69
2023-02-04T14:56:09.497Z,5.59
2023-02-04T14:58:39.046Z,6.17
2023-02-04T15:01:11.964Z,5.49
2023-02-04T15:03:41.534Z,5.77
2023-02-04T15:06:11.157Z,6.02
2023-02-04T15:08:40.729Z,6.27
2023-02-04T15:11:10.333Z,4.69
2023-02-04T15:13:39.903Z,5.43
2023-02-04T15:16:12.446Z,5.12
2023-02-04T15:18:42.322Z,5.42
2023-02-04T15:21:11.975Z,4.63
2023-02-04T15:23:43.914Z,4.94
2023-02-04T15:26:13.645Z,5.22
2023-02-04T15:28:43.622Z,4.43
2023-02-04T15:31:15.832Z,4.86
2023-02-04T15:33:45.492Z,4.55
2023-02-04T15:36:15.112Z,4.43
2023-02-04T15:38:44.642Z,4.15
2023-02-04T15:41:15.215Z,4.44
2023-02-04T15:43:45.345Z,4.72
2023-02-04T15:46:17.579Z,4.77
2023-02-04T15:48:47.605Z,5.39
2023-02-04T15:51:17.654Z,4.88
2023-02-04T15:53:47.165Z,4.80
2023-02-04T15:56:16.698Z,4.80
2023-02-04T15:58:46.256Z,4.86
2023-02-04T16:01:19.067Z,4.28
2023-02-04T16:03:50.784Z,4.48
2023-02-04T16:06:20.354Z,4.52
2023-02-04T16:08:49.894Z,4.69
2023-02-04T16:11:19.445Z,4.00
2023-02-04T16:13:49.010Z,4.22
2023-02-04T16:16:21.275Z,3.65
2023-02-04T16:18:50.836Z,3.60
2023-02-04T16:21:20.397Z,2.88
2023-02-04T16:23:50.006Z,3.09
2023-02-04T16:26:19.618Z,3.77
2023-02-04T16:28:49.218Z,2.64
2023-02-04T16:31:21.410Z,2.66
2023-02-04T16:33:51.017Z,2.42
2023-02-04T16:36:20.538Z,2.51
2023-02-04T16:38:50.932Z,2.15
2023-02-04T16:41:20.628Z,1.56
2023-02-04T16:43:51.105Z,2.10
2023-02-04T16:46:23.216Z,2.10
2023-02-04T16:48:53.024Z,2.49
2023-02-04T16:51:23.094Z,3.21
2023-02-04T16:53:52.615Z,2.54
2023-02-04T16:56:22.232Z,1.72
2023-02-04T16:58:51.917Z,1.47
2023-02-04T17:01:24.091Z,2.14
2023-02-04T17:03:58.131Z,2.12
2023-02-04T17:06:28.287Z,1.67
2023-02-04T17:08:58.167Z,2.07
2023-02-04T17:11:34.066Z,2.16
2023-02-04T17:14:05.613Z,2.74
2023-02-04T17:16:38.004Z,2.76
2023-02-04T17:19:07.634Z,2.45
2023-02-04T17:21:39.074Z,1.97
2023-02-04T17:24:09.849Z,2.53
2023-02-04T17:26:41.501Z,2.18
2023-02-04T17:29:13.507Z,2.15
2023-02-04T17:31:46.059Z,2.02
2023-02-04T17:34:15.735Z,2.16
2023-02-04T17:36:45.251Z,1.67
2023-02-04T17:39:14.776Z,1.60
2023-02-04T17:41:44.317Z,1.55
2023-02-04T17:44:17.206Z,1.49
2023-02-04T17:46:49.337Z,1.74
2023-02-04T17:49:19.074Z,2.06
2023-02-04T17:51:48.620Z,2.06
2023-02-04T17:54:18.158Z,2.31
2023-02-04T17:56:47.696Z,1.85
2023-02-04T17:59:17.208Z,1.75
2023-02-04T18:01:49.446Z,1.53
2023-02-04T18:04:19.539Z,1.27
2023-02-04T18:06:50.222Z,1.27
2023-02-04T18:09:20.525Z,1.10
2023-02-04T18:11:50.054Z,1.05
2023-02-04T18:14:26.771Z,1.07
2023-02-04T18:17:01.161Z,1.15
2023-02-04T18:19:37.213Z,1.11
2023-02-04T18:22:13.209Z,1.02
2023-02-04T18:24:45.528Z,0.58
2023-02-04T18:27:19.569Z,0.97
2023-02-04T18:29:51.648Z,0.79
2023-02-04T18:32:27.011Z,1.09
2023-02-04T18:34:59.505Z,1.07
2023-02-04T18:37:32.661Z,1.09
2023-02-04T18:40:25.108Z,1.05
2023-02-04T18:43:05.412Z,0.97
2023-02-04T18:45:35.853Z,1.04
2023-02-04T18:48:55.008Z,0.87
2023-02-04T18:51:29.288Z,0.83
2023-02-04T18:54:02.267Z,1.12
2023-02-04T18:56:39.382Z,0.79
2023-02-04T18:59:18.124Z,0.72
2023-02-04T19:01:49.490Z,0.88
2023-02-04T19:04:25.488Z,1.23
2023-02-04T19:06:56.685Z,0.91
2023-02-04T19:09:30.398Z,0.91
2023-02-04T19:12:01.216Z,0.72
2023-02-04T19:14:38.984Z,0.99
2023-02-04T19:17:25.354Z,0.88
2023-02-04T19:20:01.576Z,0.86
2023-02-04T19:22:43.875Z,0.96
2023-02-04T19:25:30.913Z,1.24
2023-02-04T19:28:02.487Z,1.23
2023-02-04T19:30:50.832Z,1.04
2023-02-04T19:33:27.835Z,0.96
2023-02-04T19:35:59.996Z,0.96
2023-02-04T19:38:43.104Z,0.95
2023-02-04T19:41:28.277Z,0.85
2023-02-04T19:44:11.465Z,0.94
2023-02-04T19:46:41.408Z,0.79
2023-02-04T19:49:19.570Z,1.58
2023-02-04T19:51:55.174Z,1.28
2023-02-04T19:54:25.786Z,1.00
2023-02-04T19:56:57.792Z,1.05
2023-02-04T19:59:30.402Z,1.04
2023-02-04T20:02:14.377Z,1.55
2023-02-04T20:04:47.555Z,2.11
2023-02-04T20:07:21.976Z,1.67
2023-02-04T20:09:57.159Z,1.83
2023-02-04T20:12:27.815Z,1.75
2023-02-04T20:14:59.503Z,1.54
2023-02-04T20:17:39.198Z,1.78
2023-02-04T20:20:21.502Z,1.52
2023-02-04T20:22:55.772Z,0.84
2023-02-04T20:25:41.828Z,0.91
2023-02-04T20:28:19.404Z,1.24
2023-02-04T20:30:50.877Z,0.91
2023-02-04T20:33:30.788Z,1.17
2023-02-04T20:36:46.086Z,0.55
2023-02-04T20:39:43.124Z,0.49
2023-02-04T20:42:37.556Z,0.33
2023-02-04T20:45:31.499Z,0.53
2023-02-04T20:48:05.262Z,0.19
2023-02-04T20:50:41.629Z,0.05
2023-02-04T20:53:22.249Z,0.33
2023-02-04T20:55:56.452Z,0.20
2023-02-04T20:58:29.517Z,0.33
2023-02-04T21:00:59.347Z,0.85
2023-02-04T21:03:31.711Z,1.30
2023-02-04T21:06:03.048Z,0.86
2023-02-04T21:08:38.726Z,0.16
2023-02-04T21:11:11.394Z,-0.22
2023-02-04T21:13:41.123Z,-0.05
2023-02-04T21:16:11.445Z,0.76
2023-02-04T21:18:41.075Z,0.33
2023-02-04T21:21:11.939Z,-0.47
2023-02-04T21:23:42.411Z,0.11
2023-02-04T21:26:14.509Z,-0.38
2023-02-04T21:28:44.230Z,0.12
2023-02-04T21:31:14.284Z,0.26
2023-02-04T21:33:43.844Z,-0.47
2023-02-04T21:36:13.767Z,-0.65
2023-02-04T21:38:43.979Z,-0.70
2023-02-04T21:41:16.614Z,-0.76
2023-02-04T21:43:46.191Z,-0.70
2023-02-04T21:46:17.105Z,-0.40
2023-02-04T21:48:47.181Z,-0.54
2023-02-04T21:51:17.574Z,-0.22
2023-02-04T21:53:47.130Z,-0.54
2023-02-04T21:56:19.256Z,-0.04
2023-02-04T21:58:48.779Z,0.77
2023-02-04T22:01:18.429Z,1.18
2023-02-04T22:03:48.127Z,0.20
2023-02-04T22:06:17.781Z,-0.37
2023-02-04T22:08:47.327Z,-0.12
2023-02-04T22:11:19.427Z,-0.24
2023-02-04T22:13:49.009Z,-0.30
2023-02-04T22:16:18.708Z,-0.55
2023-02-04T22:18:48.499Z,0.06
2023-02-04T22:21:17.999Z,-0.15
2023-02-04T22:23:47.547Z,-0.59
2023-02-04T22:26:19.666Z,-0.56
2023-02-04T22:28:52.169Z,-0.85
2023-02-04T22:31:21.758Z,-0.97
2023-02-04T22:33:51.537Z,-0.89
2023-02-04T22:36:21.070Z,-0.76
2023-02-04T22:38:51.417Z,-0.75
2023-02-04T22:41:23.522Z,-0.83
2023-02-04T22:43:53.022Z,-0.11
2023-02-04T22:46:22.661Z,-0.40
2023-02-04T22:48:52.268Z,-0.90
2023-02-04T22:51:21.762Z,-0.67
2023-02-04T22:53:51.395Z,-0.63
2023-02-04T22:56:24.115Z,-0.22
2023-02-04T22:58:53.642Z,-0.60
2023-02-04T23:01:23.184Z,-0.76
2023-02-04T23:03:52.793Z,-0.68
2023-02-04T23:06:23.444Z,-0.98
2023-02-04T23:08:54.045Z,-0.54
2023-02-04T23:11:26.155Z,-0.57
2023-02-04T23:13:55.884Z,-0.11
2023-02-04T23:16:25.497Z,0.16
2023-02-04T23:18:55.019Z,0.68
2023-02-04T23:21:24.989Z,-0.32
2023-02-04T23:23:55.355Z,-0.57
2023-02-04T23:26:27.485Z,0.23
2023-02-04T23:28:58.160Z,0.61
2023-02-04T23:31:28.027Z,0.72
2023-02-04T23:33:57.790Z,0.64
2023-02-04T23:36:29.654Z,1.17
2023-02-04T23:38:59.487Z,0.55
2023-02-04T23:41:31.577Z,-0.04
2023-02-04T23:44:01.091Z,-0.64
2023-02-04T23:46:30.621Z,-0.63
2023-02-04T23:49:00.148Z,-0.32
2023-02-04T23:51:29.702Z,-0.40
2023-02-04T23:54:00.428Z,-0.08
2023-02-04T23:56:32.600Z,-0.65
2023-02-04T23:59:02.246Z,-0.57
